Flight Track Log - Related Links

Times and Time Zones

All times are in EDT time to prevent confusion due to time zone crossing. See the AAL1326 flight status page for this flight to view local times or setup timezone preferences in your user account.

Time Position Orientation Groundspeed Altitude Reporting Facility
EDT Latitude Longitude Course Direction KTS MPH feet Rate Location/Type
Fri 09:45:09 AM 36.1781 -95.8836 62° Northeast 147 169 1,800  Level Kansas City Center
Fri 09:45:39 AM 36.1592 -95.8836 180° South 144 166 2,600 2,306 Climbing Kansas City Center
Fri 09:47:00 AM 36.4422 -95.5897 90° East  Level Estimated
Fri 09:48:00 AM 36.5233 -95.4899 58° Northeast  Level Estimated
Fri 09:49:00 AM 36.6044 -95.3898 60° Northeast  Level Estimated
Fri 09:50:00 AM 36.6853 -95.2895 62° Northeast  Level Estimated
Fri 09:51:34 AM 36.3270 -95.3410 180° South 395 455 16,600  Level FlightAware ADS-B
Fri 09:52:14 AM 36.3610 -95.2790 56° Northeast 395 455 16,600 1,551 Level FlightAware ADS-B
Fri 09:53:03 AM 36.4140 -95.1740 58° Northeast 415 478 18,900 1,663 Climbing FlightAware ADS-B
Fri 09:53:37 AM 36.4450 -95.1160 56° Northeast 415 478 18,900  Level FlightAware ADS-B
Fri 09:54:14 AM 36.4770 -95.0530 58° Northeast 415 478 18,900 4,235 Level FlightAware ADS-B
Fri 09:54:45 AM 36.5240 -94.9630 57° Northeast 441 507 23,700 5,304 Climbing FlightAware ADS-B
Fri 09:55:23 AM 36.5680 -94.8790 57° Northeast 448 516 25,000 1,923 Climbing FlightAware ADS-B
Fri 09:56:03 AM 36.6170 -94.7860 57° Northeast 456 525 26,200 1,760 Climbing FlightAware ADS-B
Fri 09:56:38 AM 36.6560 -94.7110 57° Northeast 462 532 27,200 1,650 Climbing FlightAware ADS-B
Fri 09:57:23 AM 36.7070 -94.6110 58° Northeast 471 542 28,400 1,575 Climbing FlightAware ADS-B
Fri 09:57:58 AM 36.7620 -94.5320 49° Northeast 479 551 29,300 1,457 Climbing FlightAware ADS-B
Fri 09:58:33 AM 36.8210 -94.4670 41° Northeast 485 558 30,100 1,371 Climbing FlightAware ADS-B
Fri 09:59:08 AM 36.8780 -94.4040 41° Northeast 491 565 30,900 1,275 Climbing FlightAware ADS-B
Fri 09:59:53 AM 36.9580 -94.3150 42° Northeast 497 572 31,800 1,367 Climbing FlightAware ADS-B
Fri 10:00:27 AM 37.0140 -94.2520 42° Northeast 495 570 32,700 1,662 Climbing FlightAware ADS-B
Fri 10:00:58 AM 37.0680 -94.1920 42° Northeast 492 566 33,600 1,629 Climbing FlightAware ADS-B
Fri 10:01:37 AM 37.1330 -94.1200 41° Northeast 488 562 34,600 1,500 Climbing FlightAware ADS-B
Fri 10:02:14 AM 37.1950 -94.0510 42° Northeast 485 558 35,500 1,364 Climbing FlightAware ADS-B
Fri 10:02:43 AM 37.2440 -93.9950 42° Northeast 485 558 36,100 1,219 Climbing FlightAware ADS-B
Fri 10:03:18 AM 37.3020 -93.9300 42° Northeast 482 555 36,800 1,120 Climbing FlightAware ADS-B
Fri 10:03:58 AM 37.3620 -93.8630 42° Northeast 482 555 37,500 741 Climbing FlightAware ADS-B
Fri 10:04:39 AM 37.4300 -93.7870 42° Northeast 481 554 37,800 960 Climbing FlightAware ADS-B
Fri 10:05:13 AM 37.4880 -93.7200 42° Northeast 477 549 38,700 1,091 Climbing FlightAware ADS-B
Fri 10:05:45 AM 37.5440 -93.6560 42° Northeast 477 549 39,000 254 Climbing FlightAware ADS-B
Fri 10:06:24 AM 37.6050 -93.5870 42° Northeast 476 548 39,000  Level FlightAware ADS-B
Fri 10:06:55 AM 37.6590 -93.5260 42° Northeast 475 547 39,000  Level FlightAware ADS-B
Fri 10:07:30 AM 37.7120 -93.4640 43° Northeast 474 545 39,000  Level FlightAware ADS-B
Fri 10:08:14 AM 37.7870 -93.3750 43° Northeast 473 544 39,000  Level FlightAware ADS-B
Fri 10:08:55 AM 37.8520 -93.3010 42° Northeast 472 543 39,000  Level FlightAware ADS-B
Fri 10:09:33 AM 37.9170 -93.2270 42° Northeast 482 555 39,000  Level FlightAware ADS-B
Fri 10:10:06 AM 37.9670 -93.1690 42° Northeast 484 557 39,000  Level FlightAware ADS-B
Fri 10:10:41 AM 38.0290 -93.0970 42° Northeast 485 558 39,000  Level FlightAware ADS-B
Fri 10:11:06 AM 38.0680 -93.0510 43° Northeast 485 558 39,000  Level FlightAware ADS-B
Fri 10:12:08 AM 38.1670 -92.9360 42° Northeast 486 559 39,000  Level FlightAware ADS-B
Fri 10:12:40 AM 38.2190 -92.8750 43° Northeast 485 558 39,000  Level FlightAware ADS-B
Fri 10:13:17 AM 38.2840 -92.7990 43° Northeast 485 558 39,000  Level FlightAware ADS-B
Fri 10:13:52 AM 38.3420 -92.7310 43° Northeast 484 557 39,000  Level FlightAware ADS-B
Fri 10:14:25 AM 38.3970 -92.6660 43° Northeast 484 557 39,000  Level FlightAware ADS-B
Fri 10:15:01 AM 38.4560 -92.5960 43° Northeast 484 557 39,000  Level FlightAware ADS-B
Fri 10:15:34 AM 38.5100 -92.5330 42° Northeast 483 556 39,000  Level FlightAware ADS-B
Fri 10:16:13 AM 38.5680 -92.4640 43° Northeast 483 556 39,000  Level FlightAware ADS-B
Fri 10:16:48 AM 38.6320 -92.3880 43° Northeast 482 555 39,000  Level FlightAware ADS-B
Fri 10:17:21 AM 38.6850 -92.3250 43° Northeast 481 554 39,000  Level FlightAware ADS-B
Fri 10:17:56 AM 38.7420 -92.2580 43° Northeast 480 552 39,000  Level FlightAware ADS-B
Fri 10:18:33 AM 38.8030 -92.1840 43° Northeast 479 551 39,000  Level FlightAware ADS-B
Fri 10:19:03 AM 38.8520 -92.1250 43° Northeast 478 550 39,000  Level FlightAware ADS-B
Fri 10:19:41 AM 38.9120 -92.0540 43° Northeast 477 549 39,000  Level FlightAware ADS-B
Fri 10:20:16 AM 38.9680 -91.9860 43° Northeast 476 548 39,000  Level FlightAware ADS-B
Fri 10:20:50 AM 39.0230 -91.9200 43° Northeast 478 550 39,000  Level FlightAware ADS-B
Fri 10:21:24 AM 39.0780 -91.8530 43° Northeast 481 554 39,000  Level FlightAware ADS-B
Fri 10:22:01 AM 39.1380 -91.7810 43° Northeast 481 554 39,000  Level FlightAware ADS-B
Fri 10:22:37 AM 39.1950 -91.7120 43° Northeast 481 554 39,000  Level FlightAware ADS-B
Fri 10:23:13 AM 39.2550 -91.6390 43° Northeast 481 554 39,000  Level FlightAware ADS-B
Fri 10:23:47 AM 39.3090 -91.5720 44° Northeast 481 554 39,000  Level FlightAware ADS-B
Fri 10:24:22 AM 39.3650 -91.5040 43° Northeast 481 554 39,000  Level FlightAware ADS-B
Fri 10:24:57 AM 39.4230 -91.4330 43° Northeast 481 554 39,000 -338 Level FlightAware ADS-B
Fri 10:25:33 AM 39.4800 -91.3630 43° Northeast 482 555 38,600 -771 Descending FlightAware ADS-B
Fri 10:26:07 AM 39.5350 -91.2950 44° Northeast 480 552 38,100 -943 Descending FlightAware ADS-B
Fri 10:26:43 AM 39.5920 -91.2240 44° Northeast 479 551 37,500 -930 Descending FlightAware ADS-B
Fri 10:27:18 AM 39.6480 -91.1550 43° Northeast 483 556 37,000 -448 Descending FlightAware ADS-B
Fri 10:27:50 AM 39.6990 -91.0920 44° Northeast 483 556 37,000 -87 Level FlightAware ADS-B
Fri 10:28:27 AM 39.7660 -91.0230 38° Northeast 481 554 36,900 -568 Descending FlightAware ADS-B
Fri 10:29:04 AM 39.8300 -90.9580 38° Northeast 481 554 36,300 -943 Descending FlightAware ADS-B
Fri 10:29:37 AM 39.8880 -90.9000 37° Northeast 483 556 35,800 -783 Descending FlightAware ADS-B
Fri 10:30:13 AM 39.9420 -90.8460 37° Northeast 486 559 35,400 -553 Descending FlightAware ADS-B
Fri 10:30:53 AM 40.0160 -90.7720 37° Northeast 488 562 35,100 -1,135 Descending FlightAware ADS-B
Fri 10:31:27 AM 40.0840 -90.7020 38° Northeast 491 565 34,000 -1,714 Descending FlightAware ADS-B
Fri 10:32:03 AM 40.1490 -90.6360 38° Northeast 490 564 33,100 -882 Descending FlightAware ADS-B
Fri 10:32:35 AM 40.2030 -90.5810 38° Northeast 490 564 33,000 -83 Descending FlightAware ADS-B
Fri 10:33:15 AM 40.2760 -90.5060 38° Northeast 490 564 33,000  Level FlightAware ADS-B
Fri 10:33:46 AM 40.3320 -90.4490 38° Northeast 491 565 33,000  Level FlightAware ADS-B
Fri 10:34:23 AM 40.3970 -90.3830 38° Northeast 491 565 33,000  Level FlightAware ADS-B
Fri 10:35:00 AM 40.4650 -90.3130 38° Northeast 492 566 33,000 -174 Level FlightAware ADS-B
Fri 10:35:32 AM 40.5230 -90.2530 38° Northeast 489 563 32,800 -646 Descending FlightAware ADS-B
Fri 10:36:05 AM 40.5790 -90.1950 38° Northeast 486 559 32,300 -1,000 Descending FlightAware ADS-B
Fri 10:36:44 AM 40.6490 -90.1230 38° Northeast 489 563 31,600 -1,068 Descending FlightAware ADS-B
Fri 10:37:18 AM 40.7120 -90.0570 38° Northeast 491 565 31,000 -930 Descending FlightAware ADS-B
Fri 10:37:55 AM 40.7770 -89.9890 38° Northeast 492 566 30,500 -857 Descending FlightAware ADS-B
Fri 10:38:28 AM 40.8310 -89.9330 38° Northeast 492 566 30,000 -1,029 Descending FlightAware ADS-B
Fri 10:39:05 AM 40.9010 -89.8600 38° Northeast 491 565 29,300 -1,478 Descending FlightAware ADS-B
Fri 10:39:37 AM 40.9560 -89.8020 39° Northeast 478 550 28,300 -2,250 Descending FlightAware ADS-B
Fri 10:40:09 AM 41.0110 -89.7440 39° Northeast 471 542 26,900 -2,500 Descending FlightAware ADS-B
Fri 10:40:49 AM 41.0770 -89.6750 38° Northeast 467 537 25,300 -2,250 Descending FlightAware ADS-B
Fri 10:41:21 AM 41.1330 -89.6150 39° Northeast 460 529 24,200 -1,742 Descending FlightAware ADS-B
Fri 10:41:51 AM 41.1730 -89.5550 48° Northeast 441 507 23,500 -1,810 Descending FlightAware ADS-B
Fri 10:42:24 AM 41.2050 -89.4750 62° Northeast 431 496 22,300 -2,113 Descending FlightAware ADS-B
Fri 10:43:02 AM 41.2420 -89.3860 61° Northeast 427 491 21,000 -2,027 Descending FlightAware ADS-B
Fri 10:43:38 AM 41.2730 -89.3070 62° Northeast 419 482 19,800 -2,000 Descending FlightAware ADS-B
Fri 10:44:08 AM 41.3000 -89.2390 62° Northeast 411 473 18,800 -1,853 Descending FlightAware ADS-B
Fri 10:44:46 AM 41.3330 -89.1590 61° Northeast 406 467 17,700 -1,946 Descending FlightAware ADS-B
Fri 10:45:22 AM 41.3660 -89.0760 62° Northeast 404 465 16,400 -2,118 Descending FlightAware ADS-B
Fri 10:45:54 AM 41.3950 -89.0030 62° Northeast 395 455 15,300 -1,913 Descending FlightAware ADS-B
Fri 10:46:31 AM 41.4250 -88.9280 62° Northeast 387 445 14,200 -1,917 Descending FlightAware ADS-B
Fri 10:47:06 AM 41.4550 -88.8510 63° Northeast 379 436 13,000 -1,913 Descending FlightAware ADS-B
Fri 10:47:40 AM 41.4830 -88.7820 62° Northeast 371 427 12,000 -1,754 Descending FlightAware ADS-B
Fri 10:48:11 AM 41.5070 -88.7220 62° Northeast 360 414 11,100 -1,000 Descending FlightAware ADS-B
Fri 10:48:52 AM 41.5360 -88.6480 62° Northeast 320 368 10,800 -160 Descending FlightAware ADS-B
Fri 10:49:26 AM 41.5590 -88.5900 62° Northeast 309 356 10,900 87 Climbing FlightAware ADS-B
Fri 10:50:01 AM 41.5830 -88.5300 62° Northeast 306 352 10,900 -83 Level FlightAware ADS-B
Fri 10:50:38 AM 41.6080 -88.4700 61° Northeast 306 352 10,800 -618 Descending FlightAware ADS-B
Fri 10:51:09 AM 41.6350 -88.4220 53° Northeast 305 351 10,200 -1,286 Descending FlightAware ADS-B
Fri 10:51:34 AM 41.6560 -88.3870 51° Northeast 303 349 9,600 -1,395 Descending FlightAware ADS-B
Fri 10:51:52 AM 41.6720 -88.3600 52° Northeast 302 348 9,200 -1,385 Descending FlightAware ADS-B
Fri 10:52:00 AM 41.6790 -88.3500 47° Northeast 303 349 9,000 -1,875 Descending FlightAware ADS-B
Fri 10:52:08 AM 41.6880 -88.3420 34° Northeast 306 352 8,700 -1,636 Descending FlightAware ADS-B
Fri 10:52:22 AM 41.7080 -88.3350 15° North 307 353 8,400 -1,317 Descending FlightAware ADS-B
Fri 10:52:49 AM 41.7480 -88.3360 359° North 304 350 7,800 -1,375 Descending FlightAware ADS-B
Fri 10:53:10 AM 41.7770 -88.3370 359° North 303 349 7,300 -1,412 Descending FlightAware ADS-B
Fri 10:53:23 AM 41.7940 -88.3380 357° North 302 348 7,000 -1,161 Descending FlightAware ADS-B
Fri 10:53:41 AM 41.8200 -88.3400 357° North 295 339 6,700 -818 Descending FlightAware ADS-B
Fri 10:54:07 AM 41.8550 -88.3420 358° North 280 322 6,400 -667 Descending FlightAware ADS-B
Fri 10:54:26 AM 41.8780 -88.3430 358° North 272 313 6,200 -857 Descending FlightAware ADS-B
Fri 10:54:49 AM 41.9060 -88.3350 12° North 261 300 5,800 -1,125 Descending FlightAware ADS-B
Fri 10:54:58 AM 41.9130 -88.3270 40° Northeast 256 295 5,600 -1,385 Descending FlightAware ADS-B
Fri 10:55:02 AM 41.9160 -88.3230 45° Northeast 256 295 5,500 -1,636 Descending FlightAware ADS-B
Fri 10:55:09 AM 41.9200 -88.3100 68° East 249 287 5,300 -1,862 Descending FlightAware ADS-B
Fri 10:55:31 AM 41.9270 -88.2780 74° East 249 287 4,600 -1,674 Descending FlightAware ADS-B
Fri 10:55:52 AM 41.9340 -88.2450 74° East 242 278 4,100 -1,024 Descending FlightAware ADS-B
Fri 10:56:12 AM 41.9390 -88.2200 75° East 235 270 3,900 -419 Descending FlightAware ADS-B
Fri 10:56:35 AM 41.9450 -88.1880 76° East 223 257 3,800 -133 Descending FlightAware ADS-B
Fri 10:56:57 AM 41.9510 -88.1580 75° East 219 252 3,800 162 Level FlightAware ADS-B
Fri 10:57:12 AM 41.9550 -88.1400 73° East 205 236 3,900 -732 Climbing FlightAware ADS-B
Fri 10:57:38 AM 41.9620 -88.1070 74° East 201 231 3,300 -1,467 Descending FlightAware ADS-B
Fri 10:57:57 AM 41.9670 -88.0850 73° East 205 236 2,800 -1,400 Descending FlightAware ADS-B
Fri 10:58:08 AM 41.9690 -88.0700 80° East 203 234 2,600 -1,135 Descending FlightAware ADS-B
Fri 10:58:34 AM 41.9690 -88.0410 90° East 189 217 2,100 -1,067 Descending FlightAware ADS-B
Fri 10:58:53 AM 41.9690 -88.0180 90° East 172 198 1,800 -906 Descending FlightAware ADS-B
Fri 10:59:27 AM 41.9690 -87.9850 90° East 155 178 1,300 -844 Descending FlightAware ADS-B
Fri 10:59:57 AM 41.9690 -87.9550 90° East 152 175 900 -778 Descending FlightAware ADS-B
Fri 11:00:21 AM 41.9690 -87.9340 90° East 151 174 600 -750 Descending FlightAware ADS-B
Fri 11:00:42 AM 41.9690 -87.9150 90° East 115 132 -1,714 Descending FlightAware ADS-B
Fri 11:01:08 AM 41.9690 -87.8990 90° East 115 132  Level FlightAware ADS-B

Login

Don't have an account? Register now (free) for customized features, flight alerts, and more!